createdAt,value
2022-11-29T00:01:17.707Z,68.78
2022-11-29T00:03:44.546Z,69.21
2022-11-29T00:06:13.730Z,69.00
2022-11-29T00:08:41.393Z,69.74
2022-11-29T00:11:37.462Z,69.73
2022-11-29T00:14:04.981Z,69.42
2022-11-29T00:16:31.580Z,69.70
2022-11-29T00:18:58.350Z,69.66
2022-11-29T00:21:25.002Z,69.08
2022-11-29T00:23:51.625Z,69.19
2022-11-29T00:26:18.269Z,69.21
2022-11-29T00:28:44.897Z,69.16
2022-11-29T00:31:20.136Z,69.22
2022-11-29T00:33:47.069Z,68.83
2022-11-29T00:36:14.620Z,68.64
2022-11-29T00:38:41.597Z,69.09
2022-11-29T00:41:09.684Z,69.16
2022-11-29T00:43:36.519Z,69.06
2022-11-29T00:46:04.107Z,69.05
2022-11-29T00:48:31.329Z,68.87
2022-11-29T00:50:58.536Z,69.11
2022-11-29T00:53:25.333Z,69.25
2022-11-29T00:55:53.021Z,69.41
2022-11-29T00:58:20.845Z,69.10
2022-11-29T01:00:47.833Z,68.87
2022-11-29T01:03:15.169Z,69.15
2022-11-29T01:05:43.000Z,69.03
2022-11-29T01:08:11.081Z,69.08
2022-11-29T01:10:37.714Z,69.19
2022-11-29T01:13:04.598Z,69.22
2022-11-29T01:15:31.525Z,69.25
2022-11-29T01:17:58.218Z,69.19
2022-11-29T01:20:25.166Z,70.18
2022-11-29T01:22:51.773Z,69.45
2022-11-29T01:25:19.482Z,69.13
2022-11-29T01:27:46.627Z,69.17
2022-11-29T01:30:13.779Z,69.18
2022-11-29T01:32:40.391Z,68.80
2022-11-29T01:35:07.393Z,68.88
2022-11-29T01:37:34.365Z,68.97
2022-11-29T01:40:00.962Z,69.03
2022-11-29T01:42:27.577Z,68.94
2022-11-29T01:45:07.101Z,69.01
2022-11-29T01:47:39.422Z,69.93
2022-11-29T01:50:07.904Z,71.31
2022-11-29T01:52:34.489Z,72.01
2022-11-29T01:55:06.491Z,71.48
2022-11-29T01:57:35.441Z,71.04
2022-11-29T02:00:11.541Z,70.91
2022-11-29T02:03:11.973Z,70.77
2022-11-29T02:05:42.285Z,70.41
2022-11-29T02:08:11.420Z,70.14
2022-11-29T02:10:43.218Z,70.06
2022-11-29T02:13:25.177Z,69.99
2022-11-29T02:16:10.256Z,70.00
2022-11-29T02:19:03.312Z,70.14
2022-11-29T02:21:38.677Z,70.86
2022-11-29T02:24:24.379Z,70.44
2022-11-29T02:27:03.262Z,70.50
2022-11-29T02:29:54.558Z,70.25
2022-11-29T02:32:46.030Z,70.20
2022-11-29T02:35:21.641Z,70.29
2022-11-29T02:37:58.558Z,71.09
2022-11-29T02:40:43.807Z,70.61
2022-11-29T02:43:31.853Z,70.90
2022-11-29T02:46:07.406Z,71.96
2022-11-29T02:48:36.820Z,72.67
2022-11-29T02:51:40.900Z,74.39
2022-11-29T02:54:29.871Z,74.47
2022-11-29T02:57:26.012Z,74.98
2022-11-29T03:00:05.198Z,76.82
2022-11-29T03:02:50.585Z,77.57
2022-11-29T03:05:44.815Z,76.95
2022-11-29T03:08:42.132Z,75.92
2022-11-29T03:11:32.314Z,75.97
2022-11-29T03:14:14.745Z,75.20
2022-11-29T03:17:04.485Z,74.75
2022-11-29T03:19:39.934Z,74.64
2022-11-29T03:22:25.160Z,74.90
2022-11-29T03:25:32.985Z,74.04
2022-11-29T03:28:11.499Z,73.88
2022-11-29T03:30:43.962Z,73.72
2022-11-29T03:33:22.821Z,73.53
2022-11-29T03:36:27.742Z,73.83
2022-11-29T03:39:00.728Z,73.46
2022-11-29T03:41:41.510Z,74.97
2022-11-29T03:44:27.177Z,74.93
2022-11-29T03:47:04.098Z,74.01
2022-11-29T03:49:37.492Z,73.19
2022-11-29T03:52:21.973Z,72.83
2022-11-29T03:55:16.055Z,72.96
2022-11-29T03:58:08.902Z,73.15
2022-11-29T04:01:00.368Z,73.33
2022-11-29T04:03:44.891Z,73.29
2022-11-29T04:06:30.767Z,73.26
2022-11-29T04:09:23.020Z,73.04
2022-11-29T04:12:04.606Z,73.56
2022-11-29T04:14:55.577Z,73.07
2022-11-29T04:17:36.105Z,72.52
2022-11-29T04:20:41.083Z,72.74
2022-11-29T04:23:37.303Z,72.25
2022-11-29T04:26:21.961Z,72.29
2022-11-29T04:29:28.478Z,72.82
2022-11-29T04:32:16.950Z,73.00
2022-11-29T04:34:59.641Z,72.69
2022-11-29T04:37:58.121Z,72.90
2022-11-29T04:40:50.618Z,72.91
2022-11-29T04:43:27.935Z,73.17
2022-11-29T04:46:31.574Z,72.92
2022-11-29T04:49:00.803Z,72.20
2022-11-29T04:52:15.881Z,72.33
2022-11-29T04:55:04.553Z,72.63
2022-11-29T04:57:39.837Z,74.87
2022-11-29T05:00:12.702Z,73.40
2022-11-29T05:03:02.666Z,73.50
2022-11-29T05:05:45.625Z,73.12
2022-11-29T05:08:17.909Z,72.27
2022-11-29T05:11:02.784Z,72.17
2022-11-29T05:13:47.932Z,72.20
2022-11-29T05:16:33.295Z,73.43
2022-11-29T05:19:08.957Z,74.01
2022-11-29T05:21:54.882Z,74.57
2022-11-29T05:24:24.136Z,73.17
2022-11-29T05:27:02.195Z,72.89
2022-11-29T05:29:46.321Z,73.02
2022-11-29T05:32:43.901Z,72.89
2022-11-29T05:35:38.246Z,74.15
2022-11-29T05:38:32.224Z,75.04
2022-11-29T05:41:33.689Z,76.76
2022-11-29T05:44:16.839Z,77.27
2022-11-29T05:46:55.917Z,76.68
2022-11-29T05:49:22.477Z,76.60
2022-11-29T05:51:58.038Z,76.63
2022-11-29T05:54:31.402Z,76.12
2022-11-29T05:57:20.262Z,74.54
2022-11-29T05:59:50.801Z,75.11
2022-11-29T06:02:23.273Z,73.98
2022-11-29T06:05:06.785Z,73.64
2022-11-29T06:08:01.316Z,73.34
2022-11-29T06:10:35.956Z,73.00
2022-11-29T06:13:38.199Z,73.29
2022-11-29T06:16:42.649Z,73.41
2022-11-29T06:19:24.385Z,72.92
2022-11-29T06:22:06.238Z,72.83
2022-11-29T06:25:02.288Z,72.63
2022-11-29T06:27:35.365Z,72.08
2022-11-29T06:30:08.029Z,72.02
2022-11-29T06:32:54.565Z,72.67
2022-11-29T06:35:48.284Z,73.94
2022-11-29T06:38:17.850Z,74.11
2022-11-29T06:40:44.887Z,73.39
2022-11-29T06:43:11.814Z,73.90
2022-11-29T06:45:43.134Z,75.08
2022-11-29T06:48:11.714Z,74.28
2022-11-29T06:51:15.622Z,74.25
2022-11-29T06:53:44.879Z,75.19
2022-11-29T06:56:29.109Z,75.42
2022-11-29T06:59:24.257Z,74.62
2022-11-29T07:02:04.969Z,73.80
2022-11-29T07:04:46.762Z,73.08
2022-11-29T07:07:18.605Z,72.98
2022-11-29T07:09:49.404Z,72.36
2022-11-29T07:12:17.621Z,74.17
2022-11-29T07:14:45.165Z,74.92
2022-11-29T07:17:20.925Z,74.60
2022-11-29T07:19:58.173Z,74.53
2022-11-29T07:22:27.473Z,73.29
2022-11-29T07:25:20.544Z,74.08
2022-11-29T07:28:02.593Z,74.75
2022-11-29T07:30:52.273Z,74.07
2022-11-29T07:33:21.807Z,74.46
2022-11-29T07:36:14.600Z,75.83
2022-11-29T07:39:10.369Z,75.91
2022-11-29T07:41:57.173Z,76.53
2022-11-29T07:44:32.677Z,76.35
2022-11-29T07:46:59.401Z,76.66
2022-11-29T07:49:25.983Z,78.07
2022-11-29T07:51:54.445Z,78.40
2022-11-29T07:54:22.228Z,77.94
2022-11-29T07:56:48.872Z,77.02
2022-11-29T07:59:15.520Z,76.21
2022-11-29T08:01:42.631Z,75.60
2022-11-29T08:04:09.993Z,75.27
2022-11-29T08:06:36.862Z,75.02
2022-11-29T08:09:04.884Z,74.24
2022-11-29T08:11:31.467Z,73.82
2022-11-29T08:14:03.814Z,73.41
2022-11-29T08:16:30.485Z,73.57
2022-11-29T08:18:57.149Z,73.30
2022-11-29T08:21:23.849Z,73.99
2022-11-29T08:23:51.470Z,73.97
2022-11-29T08:26:19.356Z,73.21
2022-11-29T08:28:46.281Z,73.85
2022-11-29T08:31:14.024Z,74.37
2022-11-29T08:33:43.642Z,74.86
2022-11-29T08:36:18.417Z,74.56
2022-11-29T08:38:45.377Z,73.83
2022-11-29T08:41:14.344Z,73.63
2022-11-29T08:43:41.738Z,73.58
2022-11-29T08:46:13.681Z,74.19
2022-11-29T08:48:43.423Z,73.39
2022-11-29T08:51:10.013Z,73.57
2022-11-29T08:53:42.918Z,73.33
2022-11-29T08:56:49.413Z,73.14
2022-11-29T08:58:57.276Z,74.27
2022-11-29T09:01:24.017Z,73.52
2022-11-29T09:03:59.806Z,72.89
2022-11-29T09:06:28.348Z,73.16
2022-11-29T09:08:59.074Z,73.58
2022-11-29T09:11:27.560Z,73.91
2022-11-29T09:13:57.499Z,74.15
2022-11-29T09:16:27.253Z,74.55
2022-11-29T09:18:56.037Z,74.89
2022-11-29T09:21:24.873Z,75.31
2022-11-29T09:23:59.320Z,75.80
2022-11-29T09:26:29.267Z,75.17
2022-11-29T09:28:57.940Z,75.51
2022-11-29T09:31:24.708Z,76.10
2022-11-29T09:33:51.830Z,75.87
2022-11-29T09:36:23.704Z,76.04
2022-11-29T09:38:53.296Z,75.39
2022-11-29T09:41:50.725Z,76.50
2022-11-29T09:44:52.934Z,76.57
2022-11-29T09:47:33.113Z,77.02
2022-11-29T09:50:25.833Z,77.41
2022-11-29T09:53:06.681Z,77.55
2022-11-29T09:55:39.563Z,76.62
2022-11-29T09:58:13.434Z,77.64
2022-11-29T10:00:51.050Z,78.10
2022-11-29T10:03:26.858Z,77.22
2022-11-29T10:06:02.487Z,76.86
2022-11-29T10:08:38.423Z,76.24
2022-11-29T10:11:28.303Z,76.26
2022-11-29T10:14:12.986Z,76.13
2022-11-29T10:16:43.849Z,75.67
2022-11-29T10:19:21.974Z,75.85
2022-11-29T10:22:05.042Z,76.25
2022-11-29T10:24:34.286Z,76.26
2022-11-29T10:27:00.898Z,76.82
2022-11-29T10:29:27.627Z,76.56
2022-11-29T10:31:56.868Z,76.71
2022-11-29T10:34:26.162Z,75.79
2022-11-29T10:36:59.962Z,75.26
2022-11-29T10:39:37.285Z,75.87
2022-11-29T10:42:06.645Z,75.87
2022-11-29T10:44:34.036Z,76.60
2022-11-29T10:47:09.447Z,76.01
2022-11-29T10:49:38.039Z,76.03
2022-11-29T10:52:05.684Z,75.50
2022-11-29T10:54:41.670Z,76.61
2022-11-29T10:57:22.929Z,76.19
2022-11-29T11:00:00.300Z,76.22
2022-11-29T11:02:27.853Z,76.05
2022-11-29T11:04:54.645Z,77.17
2022-11-29T11:07:35.699Z,76.65
2022-11-29T11:10:17.438Z,76.32
2022-11-29T11:13:04.658Z,77.26
2022-11-29T11:15:32.443Z,77.16
2022-11-29T11:18:07.132Z,77.18
2022-11-29T11:20:37.890Z,76.95
2022-11-29T11:23:07.595Z,76.89
2022-11-29T11:25:39.001Z,76.39
2022-11-29T11:28:21.323Z,76.50
2022-11-29T11:30:59.223Z,75.80
2022-11-29T11:33:28.831Z,75.32
2022-11-29T11:36:04.206Z,74.87
2022-11-29T11:38:31.384Z,74.83
2022-11-29T11:41:44.689Z,74.51
2022-11-29T11:44:47.021Z,74.67
2022-11-29T11:47:21.764Z,74.63
2022-11-29T11:50:00.369Z,74.47
2022-11-29T11:52:32.962Z,74.67
2022-11-29T11:55:21.750Z,75.07
2022-11-29T11:58:12.561Z,74.95
2022-11-29T12:01:03.579Z,74.98
2022-11-29T12:03:45.230Z,75.34
2022-11-29T12:06:40.152Z,75.39
2022-11-29T12:09:09.984Z,76.04
2022-11-29T12:12:03.563Z,75.68
2022-11-29T12:14:55.958Z,75.64
2022-11-29T12:17:32.624Z,75.80
2022-11-29T12:20:04.546Z,75.96
2022-11-29T12:22:41.511Z,76.19
2022-11-29T12:25:19.505Z,75.86
2022-11-29T12:27:46.238Z,76.11
2022-11-29T12:30:14.673Z,76.26
2022-11-29T12:33:02.957Z,75.90
2022-11-29T12:35:44.766Z,75.75
2022-11-29T12:38:48.690Z,75.80
2022-11-29T12:41:16.273Z,75.65
2022-11-29T12:43:51.816Z,75.92
2022-11-29T12:46:26.051Z,75.89
2022-11-29T12:49:06.457Z,76.37
2022-11-29T12:51:51.221Z,75.94
2022-11-29T12:54:31.389Z,75.85
2022-11-29T12:57:22.907Z,76.49
2022-11-29T13:00:11.888Z,76.56
2022-11-29T13:03:00.227Z,76.47
2022-11-29T13:05:52.201Z,76.14
2022-11-29T13:08:43.065Z,75.84
2022-11-29T13:11:23.697Z,75.91
2022-11-29T13:14:13.807Z,75.98
2022-11-29T13:17:05.017Z,76.49
2022-11-29T13:19:42.654Z,76.52
2022-11-29T13:22:43.963Z,76.33
2022-11-29T13:25:32.141Z,76.19
2022-11-29T13:28:03.416Z,75.94
2022-11-29T13:30:30.186Z,76.35
2022-11-29T13:33:13.865Z,75.94
2022-11-29T13:35:57.868Z,75.57
2022-11-29T13:38:53.789Z,75.95
2022-11-29T13:41:43.710Z,75.79
2022-11-29T13:44:38.263Z,76.00
2022-11-29T13:47:15.705Z,75.47
2022-11-29T13:49:57.052Z,75.52
2022-11-29T13:52:36.591Z,75.48
2022-11-29T13:55:12.365Z,75.83
2022-11-29T13:58:15.067Z,75.70
2022-11-29T14:00:49.781Z,75.96
2022-11-29T14:03:22.167Z,75.41
2022-11-29T14:06:09.282Z,75.40
2022-11-29T14:09:10.312Z,75.16
2022-11-29T14:11:31.534Z,75.75
2022-11-29T14:14:09.034Z,75.93
2022-11-29T14:17:00.037Z,75.72
2022-11-29T14:19:33.471Z,75.83
2022-11-29T14:22:03.450Z,75.27
2022-11-29T14:24:33.292Z,75.34
2022-11-29T14:27:23.162Z,75.07
2022-11-29T14:29:49.876Z,75.24
2022-11-29T14:32:45.912Z,75.02
2022-11-29T14:35:13.140Z,74.76
2022-11-29T14:38:19.237Z,74.49
2022-11-29T14:40:54.436Z,74.60
2022-11-29T14:43:36.153Z,74.71
2022-11-29T14:46:23.555Z,73.35
2022-11-29T14:48:55.498Z,73.66
2022-11-29T14:51:25.082Z,73.67
2022-11-29T14:54:05.035Z,74.11
2022-11-29T14:56:42.663Z,73.30
2022-11-29T14:59:46.998Z,72.71
2022-11-29T15:02:37.999Z,72.18
2022-11-29T15:05:29.318Z,71.91
2022-11-29T15:08:20.823Z,71.62
2022-11-29T15:10:54.241Z,71.43
2022-11-29T15:13:31.305Z,70.82
2022-11-29T15:16:22.004Z,71.23
2022-11-29T15:19:18.452Z,71.19
2022-11-29T15:22:20.054Z,71.25
2022-11-29T15:24:54.973Z,70.78
2022-11-29T15:27:22.682Z,71.17
2022-11-29T15:29:49.534Z,71.06
2022-11-29T15:32:32.534Z,70.64
2022-11-29T15:34:59.702Z,71.24
2022-11-29T15:37:32.094Z,72.31
2022-11-29T15:40:20.340Z,72.05
2022-11-29T15:43:15.455Z,71.67
2022-11-29T15:45:48.419Z,72.26
2022-11-29T15:48:28.903Z,71.92
2022-11-29T15:51:04.870Z,71.49
2022-11-29T15:53:31.403Z,72.10
2022-11-29T15:56:01.207Z,72.20
2022-11-29T15:58:32.974Z,73.17
2022-11-29T16:01:01.254Z,72.51
2022-11-29T16:03:34.684Z,72.44
2022-11-29T16:06:20.332Z,72.86
2022-11-29T16:08:48.342Z,73.11
2022-11-29T16:11:23.233Z,73.05
2022-11-29T16:14:04.845Z,72.88
2022-11-29T16:16:34.214Z,72.18
2022-11-29T16:19:18.156Z,72.35
2022-11-29T16:21:44.982Z,73.12
2022-11-29T16:24:14.496Z,72.63
2022-11-29T16:26:46.114Z,72.95
2022-11-29T16:29:34.013Z,72.07
2022-11-29T16:32:23.379Z,71.83
2022-11-29T16:34:50.137Z,71.06
2022-11-29T16:37:25.514Z,71.48
2022-11-29T16:40:01.466Z,72.55
2022-11-29T16:42:30.349Z,73.97
2022-11-29T16:45:07.832Z,73.53
2022-11-29T16:48:24.592Z,72.70
2022-11-29T16:51:09.902Z,72.47
2022-11-29T16:53:47.701Z,73.61
2022-11-29T16:56:16.893Z,73.30
2022-11-29T16:59:25.498Z,73.15
2022-11-29T17:01:32.666Z,73.43
2022-11-29T17:04:00.175Z,73.28
2022-11-29T17:06:28.665Z,73.12
2022-11-29T17:08:57.236Z,73.68
2022-11-29T17:11:23.944Z,73.18
2022-11-29T17:13:51.014Z,72.17
2022-11-29T17:16:20.837Z,72.61
2022-11-29T17:18:48.212Z,71.41
2022-11-29T17:21:21.905Z,72.15
2022-11-29T17:23:49.030Z,72.31
2022-11-29T17:26:16.235Z,71.71
2022-11-29T17:28:44.281Z,72.32
2022-11-29T17:31:12.610Z,71.74
2022-11-29T17:33:39.375Z,71.58
2022-11-29T17:36:12.187Z,71.47
2022-11-29T17:38:38.910Z,71.28
2022-11-29T17:41:13.190Z,71.24
2022-11-29T17:43:40.600Z,72.47
2022-11-29T17:46:13.431Z,71.53
2022-11-29T17:48:40.372Z,71.16
2022-11-29T17:51:22.779Z,70.40
2022-11-29T17:53:55.234Z,70.69
2022-11-29T17:56:24.753Z,70.97
2022-11-29T17:58:55.863Z,71.14
2022-11-29T18:01:24.980Z,70.82
2022-11-29T18:03:54.673Z,70.24
2022-11-29T18:06:24.351Z,70.38
2022-11-29T18:08:56.282Z,70.54
2022-11-29T18:11:41.659Z,70.39
2022-11-29T18:14:13.284Z,70.02
2022-11-29T18:16:40.246Z,70.49
2022-11-29T18:19:09.349Z,70.12
2022-11-29T18:21:36.622Z,69.63
2022-11-29T18:24:05.842Z,69.47
2022-11-29T18:26:33.913Z,69.84
2022-11-29T18:29:00.758Z,69.53
2022-11-29T18:31:29.558Z,69.61
2022-11-29T18:33:58.986Z,70.11
2022-11-29T18:36:28.195Z,70.73
2022-11-29T18:38:59.924Z,70.03
2022-11-29T18:41:28.419Z,70.57
2022-11-29T18:43:58.950Z,70.57
2022-11-29T18:46:26.541Z,70.56
2022-11-29T18:48:53.190Z,70.41
2022-11-29T18:51:20.791Z,70.55
2022-11-29T18:53:47.691Z,69.97
2022-11-29T18:56:19.694Z,69.76
2022-11-29T18:58:48.334Z,69.93
2022-11-29T19:01:17.637Z,70.03
2022-11-29T19:03:47.730Z,69.68
2022-11-29T19:06:16.554Z,69.74
2022-11-29T19:08:43.472Z,69.95
2022-11-29T19:11:13.205Z,70.21
2022-11-29T19:13:40.732Z,69.75
2022-11-29T19:16:13.096Z,69.21
2022-11-29T19:18:40.556Z,69.63
2022-11-29T19:21:09.819Z,69.56
2022-11-29T19:23:36.418Z,69.32
2022-11-29T19:26:11.110Z,69.70
2022-11-29T19:28:39.665Z,69.96
2022-11-29T19:31:07.486Z,70.74
2022-11-29T19:33:35.202Z,70.56
2022-11-29T19:36:12.955Z,70.51
2022-11-29T19:38:40.010Z,70.31
2022-11-29T19:41:18.150Z,69.76
2022-11-29T19:43:45.761Z,69.88
2022-11-29T19:46:18.505Z,69.64
2022-11-29T19:48:45.467Z,69.78
2022-11-29T19:51:13.457Z,69.18
2022-11-29T19:53:40.194Z,69.26
2022-11-29T19:56:09.300Z,69.30
2022-11-29T19:58:36.059Z,69.14
2022-11-29T20:01:07.657Z,69.04
2022-11-29T20:03:34.853Z,69.75
2022-11-29T20:06:02.085Z,70.31
2022-11-29T20:08:29.275Z,69.56
2022-11-29T20:10:55.997Z,69.17
2022-11-29T20:13:22.932Z,68.85
2022-11-29T20:15:49.590Z,69.00
2022-11-29T20:18:16.232Z,68.93
2022-11-29T20:20:42.821Z,69.89
2022-11-29T20:23:09.437Z,69.86
2022-11-29T20:25:36.815Z,69.53
2022-11-29T20:28:04.243Z,69.28
2022-11-29T20:30:30.873Z,69.72
2022-11-29T20:32:57.597Z,69.82
2022-11-29T20:35:24.420Z,70.15
2022-11-29T20:38:28.367Z,69.45
2022-11-29T20:41:08.266Z,69.35
2022-11-29T20:43:37.571Z,69.14
2022-11-29T20:46:04.414Z,69.10
2022-11-29T20:48:31.257Z,68.82
2022-11-29T20:51:00.841Z,68.52
2022-11-29T20:53:36.101Z,68.58
2022-11-29T20:56:04.785Z,68.91
2022-11-29T20:58:31.645Z,68.71
2022-11-29T21:00:58.750Z,68.88
2022-11-29T21:03:26.088Z,68.72
2022-11-29T21:05:53.202Z,68.99
2022-11-29T21:08:23.532Z,69.38
2022-11-29T21:10:51.096Z,70.58
2022-11-29T21:13:20.517Z,70.81
2022-11-29T21:15:47.760Z,71.15
2022-11-29T21:18:23.584Z,70.93
2022-11-29T21:21:09.966Z,70.33
2022-11-29T21:23:49.638Z,69.53
2022-11-29T21:26:51.528Z,70.18
2022-11-29T21:29:21.002Z,70.04
2022-11-29T21:31:51.345Z,70.48
2022-11-29T21:34:18.342Z,69.82
2022-11-29T21:36:48.717Z,69.01
2022-11-29T21:39:16.585Z,68.53
2022-11-29T21:41:43.181Z,68.43
2022-11-29T21:44:10.152Z,68.65
2022-11-29T21:46:36.856Z,68.68
2022-11-29T21:49:04.319Z,68.31
2022-11-29T21:51:30.877Z,68.38
2022-11-29T21:53:57.490Z,68.29
2022-11-29T21:56:24.113Z,68.35
2022-11-29T21:58:50.711Z,68.35
2022-11-29T22:01:20.062Z,68.51
2022-11-29T22:03:47.423Z,68.14
2022-11-29T22:06:18.581Z,68.55
2022-11-29T22:08:45.182Z,68.28
2022-11-29T22:11:14.646Z,68.10
2022-11-29T22:14:02.460Z,67.89
2022-11-29T22:16:29.935Z,67.94
2022-11-29T22:18:56.579Z,68.11
2022-11-29T22:21:23.288Z,68.61
2022-11-29T22:23:51.603Z,69.46
2022-11-29T22:26:18.201Z,68.49
2022-11-29T22:28:44.780Z,68.24
2022-11-29T22:31:12.815Z,68.33
2022-11-29T22:33:40.037Z,68.11
2022-11-29T22:36:11.743Z,68.51
2022-11-29T22:38:39.049Z,68.09
2022-11-29T22:41:07.991Z,68.12
2022-11-29T22:43:35.456Z,69.95
2022-11-29T22:46:05.177Z,69.92
2022-11-29T22:48:38.176Z,69.82
2022-11-29T22:51:14.394Z,69.49
2022-11-29T22:53:43.298Z,70.35
2022-11-29T22:56:11.502Z,71.27
2022-11-29T22:58:38.422Z,72.68
2022-11-29T23:01:14.750Z,72.91
2022-11-29T23:03:44.016Z,73.41
2022-11-29T23:06:13.621Z,73.53
2022-11-29T23:08:42.033Z,73.65
2022-11-29T23:11:11.831Z,74.27
2022-11-29T23:13:41.173Z,74.38
2022-11-29T23:16:11.833Z,74.71
2022-11-29T23:18:40.061Z,75.03
2022-11-29T23:21:10.324Z,74.73
2022-11-29T23:23:37.412Z,75.59
2022-11-29T23:26:05.506Z,75.50
2022-11-29T23:28:32.882Z,75.37
2022-11-29T23:31:00.073Z,76.12
2022-11-29T23:33:27.583Z,75.61
2022-11-29T23:36:05.518Z,75.20
2022-11-29T23:38:32.965Z,75.92
2022-11-29T23:40:59.658Z,76.22
2022-11-29T23:43:29.766Z,75.46
2022-11-29T23:45:56.754Z,75.65
2022-11-29T23:48:23.606Z,75.46
2022-11-29T23:50:50.625Z,75.80
2022-11-29T23:53:18.757Z,75.67
2022-11-29T23:55:47.897Z,74.75
2022-11-29T23:58:14.462Z,74.94
